sensor_id;sensor_type;location;lat;lon;timestamp;P1;durP1;ratioP1;P2;durP2;ratioP2
15913;SDS011;8055;51.930;8.840;2023-02-15T00:01:41;31.48;;;19.15;;
15913;SDS011;8055;51.930;8.840;2023-02-15T00:04:07;30.10;;;18.60;;
15913;SDS011;8055;51.930;8.840;2023-02-15T00:06:34;30.95;;;19.65;;
15913;SDS011;8055;51.930;8.840;2023-02-15T00:09:00;33.97;;;19.85;;
15913;SDS011;8055;51.930;8.840;2023-02-15T00:11:27;32.95;;;19.92;;
15913;SDS011;8055;51.930;8.840;2023-02-15T00:16:38;34.20;;;21.80;;
15913;SDS011;8055;51.930;8.840;2023-02-15T00:19:05;31.63;;;20.92;;
15913;SDS011;8055;51.930;8.840;2023-02-15T00:21:32;33.55;;;20.25;;
15913;SDS011;8055;51.930;8.840;2023-02-15T00:23:58;37.00;;;21.88;;
15913;SDS011;8055;51.930;8.840;2023-02-15T00:26:25;33.83;;;20.90;;
15913;SDS011;8055;51.930;8.840;2023-02-15T00:28:51;34.85;;;20.38;;
15913;SDS011;8055;51.930;8.840;2023-02-15T00:31:17;37.45;;;20.65;;
15913;SDS011;8055;51.930;8.840;2023-02-15T00:33:42;36.65;;;21.40;;
15913;SDS011;8055;51.930;8.840;2023-02-15T00:36:08;38.92;;;21.65;;
15913;SDS011;8055;51.930;8.840;2023-02-15T00:38:35;33.83;;;20.63;;
15913;SDS011;8055;51.930;8.840;2023-02-15T00:41:02;36.53;;;21.38;;
15913;SDS011;8055;51.930;8.840;2023-02-15T00:43:29;36.38;;;21.23;;
15913;SDS011;8055;51.930;8.840;2023-02-15T00:45:56;34.45;;;20.88;;
15913;SDS011;8055;51.930;8.840;2023-02-15T00:48:21;37.45;;;20.48;;
15913;SDS011;8055;51.930;8.840;2023-02-15T00:50:57;34.95;;;20.90;;
15913;SDS011;8055;51.930;8.840;2023-02-15T00:53:25;37.40;;;21.90;;
15913;SDS011;8055;51.930;8.840;2023-02-15T00:55:50;38.45;;;22.02;;
15913;SDS011;8055;51.930;8.840;2023-02-15T00:58:16;38.83;;;21.92;;
15913;SDS011;8055;51.930;8.840;2023-02-15T01:00:43;37.75;;;22.05;;
15913;SDS011;8055;51.930;8.840;2023-02-15T01:03:10;40.90;;;23.65;;
15913;SDS011;8055;51.930;8.840;2023-02-15T01:05:36;37.40;;;21.88;;
15913;SDS011;8055;51.930;8.840;2023-02-15T01:08:01;39.22;;;22.38;;
15913;SDS011;8055;51.930;8.840;2023-02-15T01:10:27;42.22;;;22.75;;
15913;SDS011;8055;51.930;8.840;2023-02-15T01:12:53;37.58;;;21.73;;
15913;SDS011;8055;51.930;8.840;2023-02-15T01:15:33;39.17;;;22.13;;
15913;SDS011;8055;51.930;8.840;2023-02-15T01:17:59;37.17;;;21.40;;
15913;SDS011;8055;51.930;8.840;2023-02-15T01:20:26;41.13;;;22.48;;
15913;SDS011;8055;51.930;8.840;2023-02-15T01:22:53;36.55;;;21.73;;
15913;SDS011;8055;51.930;8.840;2023-02-15T01:25:19;38.30;;;21.77;;
15913;SDS011;8055;51.930;8.840;2023-02-15T01:27:46;37.60;;;22.20;;
15913;SDS011;8055;51.930;8.840;2023-02-15T01:30:12;40.03;;;23.30;;
15913;SDS011;8055;51.930;8.840;2023-02-15T01:32:39;41.25;;;23.45;;
15913;SDS011;8055;51.930;8.840;2023-02-15T01:35:05;41.45;;;22.90;;
15913;SDS011;8055;51.930;8.840;2023-02-15T01:37:31;37.55;;;22.25;;
15913;SDS011;8055;51.930;8.840;2023-02-15T01:39:57;40.28;;;22.98;;
15913;SDS011;8055;51.930;8.840;2023-02-15T01:42:25;37.88;;;22.85;;
15913;SDS011;8055;51.930;8.840;2023-02-15T01:47:38;37.13;;;22.15;;
15913;SDS011;8055;51.930;8.840;2023-02-15T01:50:12;37.22;;;21.55;;
15913;SDS011;8055;51.930;8.840;2023-02-15T01:52:48;36.63;;;21.85;;
15913;SDS011;8055;51.930;8.840;2023-02-15T01:55:16;39.58;;;20.95;;
15913;SDS011;8055;51.930;8.840;2023-02-15T01:57:43;39.17;;;21.83;;
15913;SDS011;8055;51.930;8.840;2023-02-15T02:00:10;35.30;;;21.13;;
15913;SDS011;8055;51.930;8.840;2023-02-15T02:02:36;35.95;;;20.85;;
15913;SDS011;8055;51.930;8.840;2023-02-15T02:05:02;35.65;;;21.15;;
15913;SDS011;8055;51.930;8.840;2023-02-15T02:07:35;36.20;;;20.77;;
15913;SDS011;8055;51.930;8.840;2023-02-15T02:10:04;36.80;;;21.13;;
15913;SDS011;8055;51.930;8.840;2023-02-15T02:12:31;34.70;;;20.90;;
15913;SDS011;8055;51.930;8.840;2023-02-15T02:14:58;37.33;;;21.73;;
15913;SDS011;8055;51.930;8.840;2023-02-15T02:28:22;40.75;;;23.50;;
15913;SDS011;8055;51.930;8.840;2023-02-15T02:36:52;40.92;;;23.25;;
15913;SDS011;8055;51.930;8.840;2023-02-15T02:42:22;41.00;;;24.02;;
15913;SDS011;8055;51.930;8.840;2023-02-15T02:45:04;44.63;;;23.88;;
15913;SDS011;8055;51.930;8.840;2023-02-15T02:50:13;44.05;;;24.10;;
15913;SDS011;8055;51.930;8.840;2023-02-15T02:52:48;45.10;;;24.92;;
15913;SDS011;8055;51.930;8.840;2023-02-15T02:58:03;47.05;;;26.00;;
15913;SDS011;8055;51.930;8.840;2023-02-15T03:00:55;44.85;;;25.67;;
15913;SDS011;8055;51.930;8.840;2023-02-15T03:03:52;49.05;;;26.30;;
15913;SDS011;8055;51.930;8.840;2023-02-15T03:06:22;49.70;;;26.83;;
15913;SDS011;8055;51.930;8.840;2023-02-15T03:08:55;47.83;;;26.65;;
15913;SDS011;8055;51.930;8.840;2023-02-15T03:11:26;47.70;;;25.83;;
15913;SDS011;8055;51.930;8.840;2023-02-15T03:13:51;49.08;;;26.85;;
15913;SDS011;8055;51.930;8.840;2023-02-15T03:16:17;50.85;;;26.48;;
15913;SDS011;8055;51.930;8.840;2023-02-15T03:21:38;48.85;;;26.52;;
15913;SDS011;8055;51.930;8.840;2023-02-15T03:24:23;45.90;;;25.42;;
15913;SDS011;8055;51.930;8.840;2023-02-15T03:26:51;45.15;;;24.92;;
15913;SDS011;8055;51.930;8.840;2023-02-15T03:29:19;43.80;;;24.67;;
15913;SDS011;8055;51.930;8.840;2023-02-15T03:31:47;44.95;;;24.50;;
15913;SDS011;8055;51.930;8.840;2023-02-15T03:34:17;47.15;;;25.20;;
15913;SDS011;8055;51.930;8.840;2023-02-15T03:36:50;48.53;;;26.30;;
15913;SDS011;8055;51.930;8.840;2023-02-15T03:45:15;45.08;;;25.13;;
15913;SDS011;8055;51.930;8.840;2023-02-15T03:47:47;46.50;;;25.77;;
15913;SDS011;8055;51.930;8.840;2023-02-15T03:50:20;47.38;;;24.90;;
15913;SDS011;8055;51.930;8.840;2023-02-15T03:53:09;43.80;;;24.13;;
15913;SDS011;8055;51.930;8.840;2023-02-15T03:55:38;45.40;;;25.58;;
15913;SDS011;8055;51.930;8.840;2023-02-15T03:58:04;47.75;;;25.50;;
15913;SDS011;8055;51.930;8.840;2023-02-15T04:00:54;52.92;;;27.88;;
15913;SDS011;8055;51.930;8.840;2023-02-15T04:03:56;49.53;;;27.05;;
15913;SDS011;8055;51.930;8.840;2023-02-15T04:06:26;44.97;;;26.02;;
15913;SDS011;8055;51.930;8.840;2023-02-15T04:08:51;46.67;;;26.65;;
15913;SDS011;8055;51.930;8.840;2023-02-15T04:11:35;47.70;;;25.83;;
15913;SDS011;8055;51.930;8.840;2023-02-15T04:14:01;48.95;;;26.58;;
15913;SDS011;8055;51.930;8.840;2023-02-15T04:16:46;45.35;;;25.50;;
15913;SDS011;8055;51.930;8.840;2023-02-15T04:19:11;43.50;;;25.33;;
15913;SDS011;8055;51.930;8.840;2023-02-15T04:21:56;41.53;;;23.85;;
15913;SDS011;8055;51.930;8.840;2023-02-15T04:24:40;41.28;;;24.35;;
15913;SDS011;8055;51.930;8.840;2023-02-15T04:27:23;41.70;;;23.02;;
15913;SDS011;8055;51.930;8.840;2023-02-15T04:29:49;43.45;;;23.52;;
15913;SDS011;8055;51.930;8.840;2023-02-15T04:32:14;42.00;;;23.65;;
15913;SDS011;8055;51.930;8.840;2023-02-15T04:34:40;42.50;;;24.25;;
15913;SDS011;8055;51.930;8.840;2023-02-15T04:37:05;47.42;;;25.20;;
15913;SDS011;8055;51.930;8.840;2023-02-15T04:39:31;46.00;;;25.27;;
15913;SDS011;8055;51.930;8.840;2023-02-15T04:41:57;45.55;;;23.05;;
15913;SDS011;8055;51.930;8.840;2023-02-15T04:44:22;43.70;;;23.10;;
15913;SDS011;8055;51.930;8.840;2023-02-15T04:46:48;40.47;;;22.77;;
15913;SDS011;8055;51.930;8.840;2023-02-15T04:49:13;38.78;;;22.23;;
15913;SDS011;8055;51.930;8.840;2023-02-15T04:51:39;40.85;;;22.63;;
15913;SDS011;8055;51.930;8.840;2023-02-15T04:54:04;45.15;;;22.95;;
15913;SDS011;8055;51.930;8.840;2023-02-15T04:56:30;39.22;;;22.23;;
15913;SDS011;8055;51.930;8.840;2023-02-15T04:58:56;42.00;;;22.63;;
15913;SDS011;8055;51.930;8.840;2023-02-15T05:01:21;43.45;;;24.80;;
15913;SDS011;8055;51.930;8.840;2023-02-15T05:03:47;42.20;;;24.17;;
15913;SDS011;8055;51.930;8.840;2023-02-15T05:06:12;38.83;;;22.02;;
15913;SDS011;8055;51.930;8.840;2023-02-15T05:08:37;38.60;;;22.38;;
15913;SDS011;8055;51.930;8.840;2023-02-15T05:11:03;37.17;;;22.42;;
15913;SDS011;8055;51.930;8.840;2023-02-15T05:13:28;42.38;;;23.15;;
15913;SDS011;8055;51.930;8.840;2023-02-15T05:15:53;43.25;;;23.23;;
15913;SDS011;8055;51.930;8.840;2023-02-15T05:18:20;39.55;;;22.83;;
15913;SDS011;8055;51.930;8.840;2023-02-15T05:20:46;40.50;;;22.73;;
15913;SDS011;8055;51.930;8.840;2023-02-15T05:23:12;43.15;;;23.83;;
15913;SDS011;8055;51.930;8.840;2023-02-15T05:25:37;42.60;;;23.95;;
15913;SDS011;8055;51.930;8.840;2023-02-15T05:28:22;43.58;;;23.65;;
15913;SDS011;8055;51.930;8.840;2023-02-15T05:33:29;44.47;;;23.25;;
15913;SDS011;8055;51.930;8.840;2023-02-15T05:35:55;41.38;;;23.45;;
15913;SDS011;8055;51.930;8.840;2023-02-15T05:38:20;44.10;;;24.40;;
15913;SDS011;8055;51.930;8.840;2023-02-15T05:40:45;47.53;;;24.55;;
15913;SDS011;8055;51.930;8.840;2023-02-15T05:43:11;48.38;;;24.20;;
15913;SDS011;8055;51.930;8.840;2023-02-15T05:45:36;43.67;;;24.50;;
15913;SDS011;8055;51.930;8.840;2023-02-15T05:48:02;45.85;;;24.15;;
15913;SDS011;8055;51.930;8.840;2023-02-15T05:50:27;45.03;;;25.10;;
15913;SDS011;8055;51.930;8.840;2023-02-15T05:52:52;40.85;;;23.48;;
15913;SDS011;8055;51.930;8.840;2023-02-15T05:55:18;45.33;;;23.88;;
15913;SDS011;8055;51.930;8.840;2023-02-15T05:57:43;40.67;;;22.98;;
15913;SDS011;8055;51.930;8.840;2023-02-15T06:00:09;42.90;;;22.08;;
15913;SDS011;8055;51.930;8.840;2023-02-15T06:02:36;39.63;;;22.00;;
15913;SDS011;8055;51.930;8.840;2023-02-15T06:05:03;43.78;;;23.83;;
15913;SDS011;8055;51.930;8.840;2023-02-15T06:07:29;45.08;;;24.30;;
15913;SDS011;8055;51.930;8.840;2023-02-15T06:09:54;41.10;;;22.90;;
15913;SDS011;8055;51.930;8.840;2023-02-15T06:12:20;47.95;;;24.40;;
15913;SDS011;8055;51.930;8.840;2023-02-15T06:14:45;45.30;;;23.65;;
15913;SDS011;8055;51.930;8.840;2023-02-15T06:17:11;43.60;;;23.98;;
15913;SDS011;8055;51.930;8.840;2023-02-15T06:19:37;45.83;;;23.60;;
15913;SDS011;8055;51.930;8.840;2023-02-15T06:22:02;42.33;;;23.45;;
15913;SDS011;8055;51.930;8.840;2023-02-15T06:24:28;44.25;;;23.10;;
15913;SDS011;8055;51.930;8.840;2023-02-15T06:26:53;43.92;;;22.75;;
15913;SDS011;8055;51.930;8.840;2023-02-15T06:29:18;53.70;;;26.15;;
15913;SDS011;8055;51.930;8.840;2023-02-15T06:31:44;48.03;;;24.35;;
15913;SDS011;8055;51.930;8.840;2023-02-15T06:34:09;45.75;;;22.35;;
15913;SDS011;8055;51.930;8.840;2023-02-15T06:36:35;41.00;;;22.83;;
15913;SDS011;8055;51.930;8.840;2023-02-15T06:39:00;46.97;;;24.45;;
15913;SDS011;8055;51.930;8.840;2023-02-15T06:41:28;43.40;;;23.83;;
15913;SDS011;8055;51.930;8.840;2023-02-15T06:43:53;43.95;;;22.95;;
15913;SDS011;8055;51.930;8.840;2023-02-15T06:46:19;41.63;;;22.73;;
15913;SDS011;8055;51.930;8.840;2023-02-15T06:48:44;43.22;;;23.40;;
15913;SDS011;8055;51.930;8.840;2023-02-15T06:51:09;44.08;;;23.92;;
15913;SDS011;8055;51.930;8.840;2023-02-15T06:53:35;43.30;;;21.75;;
15913;SDS011;8055;51.930;8.840;2023-02-15T06:56:01;44.20;;;22.73;;
15913;SDS011;8055;51.930;8.840;2023-02-15T06:58:31;44.35;;;22.83;;
15913;SDS011;8055;51.930;8.840;2023-02-15T07:01:06;46.25;;;23.35;;
15913;SDS011;8055;51.930;8.840;2023-02-15T07:03:33;41.65;;;24.15;;
15913;SDS011;8055;51.930;8.840;2023-02-15T07:06:00;45.70;;;24.90;;
15913;SDS011;8055;51.930;8.840;2023-02-15T07:08:27;42.80;;;23.73;;
15913;SDS011;8055;51.930;8.840;2023-02-15T07:10:53;38.97;;;21.88;;
15913;SDS011;8055;51.930;8.840;2023-02-15T07:13:20;44.75;;;23.77;;
15913;SDS011;8055;51.930;8.840;2023-02-15T07:15:46;42.47;;;22.15;;
15913;SDS011;8055;51.930;8.840;2023-02-15T07:18:13;44.10;;;22.48;;
15913;SDS011;8055;51.930;8.840;2023-02-15T07:20:39;40.95;;;21.55;;
15913;SDS011;8055;51.930;8.840;2023-02-15T07:23:06;38.05;;;19.95;;
15913;SDS011;8055;51.930;8.840;2023-02-15T07:25:33;37.95;;;21.00;;
15913;SDS011;8055;51.930;8.840;2023-02-15T07:28:00;42.10;;;21.40;;
15913;SDS011;8055;51.930;8.840;2023-02-15T07:30:27;38.80;;;20.17;;
15913;SDS011;8055;51.930;8.840;2023-02-15T07:32:57;33.97;;;19.60;;
15913;SDS011;8055;51.930;8.840;2023-02-15T07:35:51;41.75;;;21.52;;
15913;SDS011;8055;51.930;8.840;2023-02-15T07:38:18;35.40;;;20.02;;
15913;SDS011;8055;51.930;8.840;2023-02-15T07:40:44;37.05;;;19.98;;
15913;SDS011;8055;51.930;8.840;2023-02-15T07:43:10;41.40;;;21.30;;
15913;SDS011;8055;51.930;8.840;2023-02-15T07:45:36;38.42;;;21.45;;
15913;SDS011;8055;51.930;8.840;2023-02-15T07:48:01;40.63;;;20.88;;
15913;SDS011;8055;51.930;8.840;2023-02-15T07:50:27;39.55;;;21.55;;
15913;SDS011;8055;51.930;8.840;2023-02-15T07:52:53;40.88;;;22.05;;
15913;SDS011;8055;51.930;8.840;2023-02-15T07:55:18;44.83;;;23.33;;
15913;SDS011;8055;51.930;8.840;2023-02-15T07:57:44;41.35;;;21.85;;
15913;SDS011;8055;51.930;8.840;2023-02-15T08:00:11;38.70;;;21.98;;
15913;SDS011;8055;51.930;8.840;2023-02-15T08:02:38;39.67;;;22.77;;
15913;SDS011;8055;51.930;8.840;2023-02-15T08:05:04;45.45;;;24.45;;
15913;SDS011;8055;51.930;8.840;2023-02-15T08:07:29;41.42;;;23.13;;
15913;SDS011;8055;51.930;8.840;2023-02-15T08:09:55;47.25;;;25.02;;
15913;SDS011;8055;51.930;8.840;2023-02-15T08:12:20;43.80;;;24.50;;
15913;SDS011;8055;51.930;8.840;2023-02-15T08:14:45;43.72;;;24.25;;
15913;SDS011;8055;51.930;8.840;2023-02-15T08:17:11;45.65;;;24.90;;
15913;SDS011;8055;51.930;8.840;2023-02-15T08:19:36;46.67;;;25.27;;
15913;SDS011;8055;51.930;8.840;2023-02-15T08:22:03;45.00;;;24.42;;
15913;SDS011;8055;51.930;8.840;2023-02-15T08:24:34;49.95;;;25.90;;
15913;SDS011;8055;51.930;8.840;2023-02-15T08:27:04;41.93;;;24.70;;
15913;SDS011;8055;51.930;8.840;2023-02-15T08:29:32;45.40;;;25.35;;
15913;SDS011;8055;51.930;8.840;2023-02-15T08:31:59;47.03;;;25.80;;
15913;SDS011;8055;51.930;8.840;2023-02-15T08:34:29;45.97;;;25.13;;
15913;SDS011;8055;51.930;8.840;2023-02-15T08:36:57;45.35;;;25.13;;
15913;SDS011;8055;51.930;8.840;2023-02-15T08:39:23;47.72;;;24.15;;
15913;SDS011;8055;51.930;8.840;2023-02-15T08:41:48;42.60;;;25.08;;
15913;SDS011;8055;51.930;8.840;2023-02-15T08:44:14;45.78;;;25.58;;
15913;SDS011;8055;51.930;8.840;2023-02-15T08:46:42;51.03;;;25.70;;
15913;SDS011;8055;51.930;8.840;2023-02-15T08:49:09;47.40;;;25.85;;
15913;SDS011;8055;51.930;8.840;2023-02-15T08:51:37;48.92;;;26.05;;
15913;SDS011;8055;51.930;8.840;2023-02-15T08:54:07;46.35;;;25.00;;
15913;SDS011;8055;51.930;8.840;2023-02-15T08:56:35;46.13;;;25.33;;
15913;SDS011;8055;51.930;8.840;2023-02-15T08:59:03;50.55;;;27.02;;
15913;SDS011;8055;51.930;8.840;2023-02-15T09:01:30;48.70;;;26.85;;
15913;SDS011;8055;51.930;8.840;2023-02-15T09:03:58;46.17;;;25.92;;
15913;SDS011;8055;51.930;8.840;2023-02-15T09:06:29;46.03;;;25.30;;
15913;SDS011;8055;51.930;8.840;2023-02-15T09:08:55;46.83;;;24.92;;
15913;SDS011;8055;51.930;8.840;2023-02-15T09:11:25;47.72;;;25.50;;
15913;SDS011;8055;51.930;8.840;2023-02-15T09:13:58;45.85;;;23.98;;
15913;SDS011;8055;51.930;8.840;2023-02-15T09:16:26;44.63;;;23.02;;
15913;SDS011;8055;51.930;8.840;2023-02-15T09:18:54;41.83;;;24.13;;
15913;SDS011;8055;51.930;8.840;2023-02-15T09:21:21;44.22;;;23.42;;
15913;SDS011;8055;51.930;8.840;2023-02-15T09:23:49;42.90;;;23.20;;
15913;SDS011;8055;51.930;8.840;2023-02-15T09:26:17;40.75;;;22.52;;
15913;SDS011;8055;51.930;8.840;2023-02-15T09:28:44;38.05;;;21.60;;
15913;SDS011;8055;51.930;8.840;2023-02-15T09:31:17;38.90;;;20.75;;
15913;SDS011;8055;51.930;8.840;2023-02-15T09:33:44;41.15;;;21.00;;
15913;SDS011;8055;51.930;8.840;2023-02-15T09:36:15;42.38;;;21.67;;
15913;SDS011;8055;51.930;8.840;2023-02-15T09:38:46;38.45;;;20.50;;
15913;SDS011;8055;51.930;8.840;2023-02-15T09:46:42;37.72;;;19.13;;
15913;SDS011;8055;51.930;8.840;2023-02-15T09:55:21;37.60;;;19.55;;
15913;SDS011;8055;51.930;8.840;2023-02-15T10:06:19;31.83;;;17.73;;
15913;SDS011;8055;51.930;8.840;2023-02-15T10:09:12;33.38;;;17.95;;
15913;SDS011;8055;51.930;8.840;2023-02-15T10:26:18;34.50;;;18.35;;
15913;SDS011;8055;51.930;8.840;2023-02-15T10:28:55;33.00;;;18.30;;
15913;SDS011;8055;51.930;8.840;2023-02-15T10:34:19;33.75;;;17.17;;
15913;SDS011;8055;51.930;8.840;2023-02-15T10:36:56;31.58;;;18.33;;
15913;SDS011;8055;51.930;8.840;2023-02-15T10:39:52;31.67;;;17.38;;
15913;SDS011;8055;51.930;8.840;2023-02-15T10:47:41;31.73;;;17.98;;
15913;SDS011;8055;51.930;8.840;2023-02-15T11:01:10;31.92;;;17.38;;
15913;SDS011;8055;51.930;8.840;2023-02-15T11:03:45;28.00;;;16.85;;
15913;SDS011;8055;51.930;8.840;2023-02-15T11:06:13;29.15;;;16.25;;
15913;SDS011;8055;51.930;8.840;2023-02-15T11:09:04;26.25;;;16.98;;
15913;SDS011;8055;51.930;8.840;2023-02-15T11:11:34;28.02;;;16.83;;
15913;SDS011;8055;51.930;8.840;2023-02-15T11:14:23;31.02;;;18.30;;
15913;SDS011;8055;51.930;8.840;2023-02-15T11:17:02;28.10;;;17.63;;
15913;SDS011;8055;51.930;8.840;2023-02-15T11:19:52;25.75;;;16.83;;
15913;SDS011;8055;51.930;8.840;2023-02-15T11:22:25;26.00;;;15.88;;
15913;SDS011;8055;51.930;8.840;2023-02-15T11:24:51;26.98;;;17.20;;
15913;SDS011;8055;51.930;8.840;2023-02-15T11:29:58;25.75;;;16.70;;
15913;SDS011;8055;51.930;8.840;2023-02-15T11:32:49;25.20;;;15.95;;
15913;SDS011;8055;51.930;8.840;2023-02-15T11:35:24;26.77;;;15.70;;
15913;SDS011;8055;51.930;8.840;2023-02-15T11:46:01;25.23;;;15.55;;
15913;SDS011;8055;51.930;8.840;2023-02-15T11:48:27;23.48;;;15.43;;
15913;SDS011;8055;51.930;8.840;2023-02-15T11:50:55;25.92;;;16.05;;
15913;SDS011;8055;51.930;8.840;2023-02-15T11:53:21;28.90;;;16.33;;
15913;SDS011;8055;51.930;8.840;2023-02-15T11:55:52;24.23;;;15.60;;
15913;SDS011;8055;51.930;8.840;2023-02-15T11:58:39;26.33;;;15.70;;
15913;SDS011;8055;51.930;8.840;2023-02-15T12:04:13;22.92;;;14.35;;
15913;SDS011;8055;51.930;8.840;2023-02-15T12:07:03;22.30;;;14.68;;
15913;SDS011;8055;51.930;8.840;2023-02-15T12:12:35;23.05;;;14.38;;
15913;SDS011;8055;51.930;8.840;2023-02-15T12:15:02;22.38;;;13.95;;
15913;SDS011;8055;51.930;8.840;2023-02-15T12:17:50;23.50;;;14.02;;
15913;SDS011;8055;51.930;8.840;2023-02-15T12:22:49;20.48;;;13.60;;
15913;SDS011;8055;51.930;8.840;2023-02-15T12:25:27;21.90;;;14.60;;
15913;SDS011;8055;51.930;8.840;2023-02-15T12:27:58;21.90;;;13.87;;
15913;SDS011;8055;51.930;8.840;2023-02-15T12:30:31;22.38;;;12.93;;
15913;SDS011;8055;51.930;8.840;2023-02-15T12:35:38;21.48;;;14.38;;
15913;SDS011;8055;51.930;8.840;2023-02-15T12:40:35;21.30;;;13.63;;
15913;SDS011;8055;51.930;8.840;2023-02-15T12:43:03;21.02;;;14.05;;
15913;SDS011;8055;51.930;8.840;2023-02-15T12:45:34;21.13;;;13.45;;
15913;SDS011;8055;51.930;8.840;2023-02-15T12:48:14;20.17;;;13.55;;
15913;SDS011;8055;51.930;8.840;2023-02-15T12:50:45;21.33;;;13.50;;
15913;SDS011;8055;51.930;8.840;2023-02-15T12:53:19;20.52;;;13.60;;
15913;SDS011;8055;51.930;8.840;2023-02-15T12:55:58;20.17;;;14.02;;
15913;SDS011;8055;51.930;8.840;2023-02-15T12:58:25;21.70;;;13.95;;
15913;SDS011;8055;51.930;8.840;2023-02-15T13:01:14;20.52;;;13.30;;
15913;SDS011;8055;51.930;8.840;2023-02-15T13:03:54;21.23;;;13.20;;
15913;SDS011;8055;51.930;8.840;2023-02-15T13:06:22;18.02;;;12.70;;
15913;SDS011;8055;51.930;8.840;2023-02-15T13:08:52;19.23;;;13.20;;
15913;SDS011;8055;51.930;8.840;2023-02-15T13:11:20;19.20;;;12.90;;
15913;SDS011;8055;51.930;8.840;2023-02-15T13:13:51;18.52;;;12.75;;
15913;SDS011;8055;51.930;8.840;2023-02-15T13:16:20;21.58;;;13.45;;
15913;SDS011;8055;51.930;8.840;2023-02-15T13:18:53;19.40;;;12.73;;
15913;SDS011;8055;51.930;8.840;2023-02-15T13:21:20;20.40;;;13.52;;
15913;SDS011;8055;51.930;8.840;2023-02-15T13:23:51;18.15;;;12.80;;
15913;SDS011;8055;51.930;8.840;2023-02-15T13:26:22;19.48;;;13.20;;
15913;SDS011;8055;51.930;8.840;2023-02-15T13:28:54;21.90;;;12.98;;
15913;SDS011;8055;51.930;8.840;2023-02-15T13:31:23;18.98;;;13.65;;
15913;SDS011;8055;51.930;8.840;2023-02-15T13:34:38;19.95;;;12.85;;
15913;SDS011;8055;51.930;8.840;2023-02-15T13:45:04;21.98;;;13.60;;
15913;SDS011;8055;51.930;8.840;2023-02-15T13:56:35;18.65;;;12.45;;
15913;SDS011;8055;51.930;8.840;2023-02-15T14:07:15;17.80;;;10.95;;
15913;SDS011;8055;51.930;8.840;2023-02-15T14:12:44;18.33;;;12.68;;
15913;SDS011;8055;51.930;8.840;2023-02-15T14:20:45;17.55;;;11.85;;
15913;SDS011;8055;51.930;8.840;2023-02-15T14:23:28;15.07;;;10.70;;
15913;SDS011;8055;51.930;8.840;2023-02-15T14:26:00;16.35;;;11.93;;
15913;SDS011;8055;51.930;8.840;2023-02-15T14:28:40;16.60;;;10.98;;
15913;SDS011;8055;51.930;8.840;2023-02-15T14:31:13;21.40;;;12.05;;
15913;SDS011;8055;51.930;8.840;2023-02-15T14:33:41;16.50;;;11.27;;
15913;SDS011;8055;51.930;8.840;2023-02-15T14:36:16;18.38;;;11.60;;
15913;SDS011;8055;51.930;8.840;2023-02-15T14:46:54;17.27;;;11.80;;
15913;SDS011;8055;51.930;8.840;2023-02-15T14:49:30;20.30;;;12.68;;
15913;SDS011;8055;51.930;8.840;2023-02-15T14:52:04;14.63;;;10.45;;
15913;SDS011;8055;51.930;8.840;2023-02-15T14:59:27;16.73;;;11.33;;
15913;SDS011;8055;51.930;8.840;2023-02-15T15:10:03;18.85;;;11.60;;
15913;SDS011;8055;51.930;8.840;2023-02-15T15:14:57;16.83;;;11.93;;
15913;SDS011;8055;51.930;8.840;2023-02-15T15:22:42;17.92;;;12.18;;
15913;SDS011;8055;51.930;8.840;2023-02-15T15:25:08;16.83;;;11.82;;
15913;SDS011;8055;51.930;8.840;2023-02-15T15:27:57;19.75;;;12.10;;
15913;SDS011;8055;51.930;8.840;2023-02-15T15:35:33;17.75;;;12.68;;
15913;SDS011;8055;51.930;8.840;2023-02-15T15:43:43;16.48;;;11.73;;
15913;SDS011;8055;51.930;8.840;2023-02-15T15:46:34;18.58;;;12.38;;
15913;SDS011;8055;51.930;8.840;2023-02-15T15:51:40;19.98;;;12.68;;
15913;SDS011;8055;51.930;8.840;2023-02-15T15:54:20;19.17;;;13.25;;
15913;SDS011;8055;51.930;8.840;2023-02-15T15:56:49;19.25;;;13.52;;
15913;SDS011;8055;51.930;8.840;2023-02-15T15:59:19;20.85;;;13.55;;
15913;SDS011;8055;51.930;8.840;2023-02-15T16:01:48;18.40;;;12.65;;
15913;SDS011;8055;51.930;8.840;2023-02-15T16:04:31;20.38;;;14.10;;
15913;SDS011;8055;51.930;8.840;2023-02-15T16:06:58;18.23;;;13.40;;
15913;SDS011;8055;51.930;8.840;2023-02-15T16:09:41;21.80;;;13.07;;
15913;SDS011;8055;51.930;8.840;2023-02-15T16:12:17;23.40;;;13.90;;
15913;SDS011;8055;51.930;8.840;2023-02-15T16:14:44;19.83;;;13.07;;
15913;SDS011;8055;51.930;8.840;2023-02-15T16:17:17;21.45;;;13.80;;
15913;SDS011;8055;51.930;8.840;2023-02-15T16:19:56;20.90;;;14.23;;
15913;SDS011;8055;51.930;8.840;2023-02-15T16:22:26;23.77;;;15.73;;
15913;SDS011;8055;51.930;8.840;2023-02-15T16:30:13;22.00;;;14.47;;
15913;SDS011;8055;51.930;8.840;2023-02-15T16:32:44;27.35;;;14.63;;
15913;SDS011;8055;51.930;8.840;2023-02-15T16:35:13;21.60;;;15.52;;
15913;SDS011;8055;51.930;8.840;2023-02-15T16:37:41;22.33;;;14.87;;
15913;SDS011;8055;51.930;8.840;2023-02-15T16:40:13;23.60;;;14.60;;
15913;SDS011;8055;51.930;8.840;2023-02-15T16:43:35;24.58;;;14.65;;
15913;SDS011;8055;51.930;8.840;2023-02-15T16:46:06;26.70;;;15.75;;
15913;SDS011;8055;51.930;8.840;2023-02-15T16:48:39;25.60;;;15.35;;
15913;SDS011;8055;51.930;8.840;2023-02-15T16:51:08;25.85;;;16.75;;
15913;SDS011;8055;51.930;8.840;2023-02-15T16:53:34;26.95;;;16.80;;
15913;SDS011;8055;51.930;8.840;2023-02-15T16:56:02;27.05;;;16.95;;
15913;SDS011;8055;51.930;8.840;2023-02-15T17:01:14;26.73;;;15.38;;
15913;SDS011;8055;51.930;8.840;2023-02-15T17:03:41;25.60;;;16.42;;
15913;SDS011;8055;51.930;8.840;2023-02-15T17:06:26;26.20;;;15.00;;
15913;SDS011;8055;51.930;8.840;2023-02-15T17:09:04;24.98;;;16.17;;
15913;SDS011;8055;51.930;8.840;2023-02-15T17:11:35;27.30;;;16.58;;
15913;SDS011;8055;51.930;8.840;2023-02-15T17:16:43;27.67;;;16.40;;
15913;SDS011;8055;51.930;8.840;2023-02-15T17:19:15;29.75;;;17.17;;
15913;SDS011;8055;51.930;8.840;2023-02-15T17:21:42;29.02;;;17.33;;
15913;SDS011;8055;51.930;8.840;2023-02-15T17:24:17;27.05;;;16.52;;
15913;SDS011;8055;51.930;8.840;2023-02-15T17:26:54;30.98;;;17.27;;
15913;SDS011;8055;51.930;8.840;2023-02-15T17:29:30;29.38;;;16.50;;
15913;SDS011;8055;51.930;8.840;2023-02-15T17:31:59;30.02;;;16.50;;
15913;SDS011;8055;51.930;8.840;2023-02-15T17:37:14;27.00;;;16.65;;
15913;SDS011;8055;51.930;8.840;2023-02-15T17:39:49;29.08;;;17.75;;
15913;SDS011;8055;51.930;8.840;2023-02-15T17:42:14;26.70;;;16.55;;
15913;SDS011;8055;51.930;8.840;2023-02-15T17:44:40;28.10;;;16.80;;
15913;SDS011;8055;51.930;8.840;2023-02-15T17:47:05;27.98;;;16.52;;
15913;SDS011;8055;51.930;8.840;2023-02-15T17:49:30;29.55;;;17.77;;
15913;SDS011;8055;51.930;8.840;2023-02-15T17:51:59;26.73;;;16.33;;
15913;SDS011;8055;51.930;8.840;2023-02-15T17:54:26;29.08;;;18.30;;
15913;SDS011;8055;51.930;8.840;2023-02-15T17:57:14;30.45;;;18.58;;
15913;SDS011;8055;51.930;8.840;2023-02-15T17:59:40;28.67;;;17.77;;
15913;SDS011;8055;51.930;8.840;2023-02-15T18:02:24;31.75;;;17.98;;
15913;SDS011;8055;51.930;8.840;2023-02-15T18:05:18;33.50;;;19.65;;
15913;SDS011;8055;51.930;8.840;2023-02-15T18:08:02;30.00;;;18.45;;
15913;SDS011;8055;51.930;8.840;2023-02-15T18:10:46;31.42;;;19.48;;
15913;SDS011;8055;51.930;8.840;2023-02-15T18:13:30;31.05;;;18.73;;
15913;SDS011;8055;51.930;8.840;2023-02-15T18:15:55;31.38;;;19.30;;
15913;SDS011;8055;51.930;8.840;2023-02-15T18:18:21;34.50;;;19.88;;
15913;SDS011;8055;51.930;8.840;2023-02-15T18:20:48;32.13;;;19.73;;
15913;SDS011;8055;51.930;8.840;2023-02-15T18:23:14;32.58;;;18.90;;